sensor_id;sensor_type;location;lat;lon;timestamp;P1;durP1;ratioP1;P2;durP2;ratioP2
3523;SDS011;1776;53.330;11.498;2023-02-12T00:01:35;15.27;;;6.87;;
3523;SDS011;1776;53.330;11.498;2023-02-12T00:04:01;19.10;;;7.50;;
3523;SDS011;1776;53.330;11.498;2023-02-12T00:06:26;16.87;;;6.43;;
3523;SDS011;1776;53.330;11.498;2023-02-12T00:08:52;21.60;;;7.30;;
3523;SDS011;1776;53.330;11.498;2023-02-12T00:11:20;21.00;;;7.10;;
3523;SDS011;1776;53.330;11.498;2023-02-12T00:13:47;15.40;;;6.20;;
3523;SDS011;1776;53.330;11.498;2023-02-12T00:16:14;14.37;;;6.83;;
3523;SDS011;1776;53.330;11.498;2023-02-12T00:18:41;14.43;;;6.57;;
3523;SDS011;1776;53.330;11.498;2023-02-12T00:21:07;16.67;;;6.57;;
3523;SDS011;1776;53.330;11.498;2023-02-12T00:23:33;11.30;;;5.90;;
3523;SDS011;1776;53.330;11.498;2023-02-12T00:25:59;20.40;;;6.63;;
3523;SDS011;1776;53.330;11.498;2023-02-12T00:28:25;19.77;;;8.23;;
3523;SDS011;1776;53.330;11.498;2023-02-12T00:30:50;15.60;;;7.13;;
3523;SDS011;1776;53.330;11.498;2023-02-12T00:33:16;20.40;;;7.70;;
3523;SDS011;1776;53.330;11.498;2023-02-12T00:35:41;19.90;;;7.40;;
3523;SDS011;1776;53.330;11.498;2023-02-12T00:38:06;22.97;;;8.67;;
3523;SDS011;1776;53.330;11.498;2023-02-12T00:40:32;22.00;;;9.00;;
3523;SDS011;1776;53.330;11.498;2023-02-12T00:42:57;22.27;;;8.53;;
3523;SDS011;1776;53.330;11.498;2023-02-12T00:45:22;19.07;;;9.17;;
3523;SDS011;1776;53.330;11.498;2023-02-12T00:47:47;18.13;;;8.27;;
3523;SDS011;1776;53.330;11.498;2023-02-12T00:50:13;17.33;;;7.30;;
3523;SDS011;1776;53.330;11.498;2023-02-12T00:52:38;15.80;;;7.23;;
3523;SDS011;1776;53.330;11.498;2023-02-12T00:55:03;19.33;;;7.63;;
3523;SDS011;1776;53.330;11.498;2023-02-12T00:57:29;24.73;;;8.63;;
3523;SDS011;1776;53.330;11.498;2023-02-12T00:59:54;17.43;;;7.90;;
3523;SDS011;1776;53.330;11.498;2023-02-12T01:02:20;12.93;;;6.83;;
3523;SDS011;1776;53.330;11.498;2023-02-12T01:04:45;14.20;;;7.37;;
3523;SDS011;1776;53.330;11.498;2023-02-12T01:07:10;21.93;;;8.33;;
3523;SDS011;1776;53.330;11.498;2023-02-12T01:09:35;20.27;;;7.10;;
3523;SDS011;1776;53.330;11.498;2023-02-12T01:12:01;12.53;;;6.33;;
3523;SDS011;1776;53.330;11.498;2023-02-12T01:14:26;20.33;;;8.83;;
3523;SDS011;1776;53.330;11.498;2023-02-12T01:16:52;15.87;;;7.00;;
3523;SDS011;1776;53.330;11.498;2023-02-12T01:19:17;13.13;;;7.40;;
3523;SDS011;1776;53.330;11.498;2023-02-12T01:21:42;16.40;;;7.03;;
3523;SDS011;1776;53.330;11.498;2023-02-12T01:24:08;26.77;;;8.30;;
3523;SDS011;1776;53.330;11.498;2023-02-12T01:26:33;14.27;;;6.20;;
3523;SDS011;1776;53.330;11.498;2023-02-12T01:29:00;17.40;;;6.70;;
3523;SDS011;1776;53.330;11.498;2023-02-12T01:31:29;9.50;;;5.70;;
3523;SDS011;1776;53.330;11.498;2023-02-12T01:33:57;16.33;;;7.73;;
3523;SDS011;1776;53.330;11.498;2023-02-12T01:36:23;19.17;;;7.47;;
3523;SDS011;1776;53.330;11.498;2023-02-12T01:38:49;14.40;;;6.93;;
3523;SDS011;1776;53.330;11.498;2023-02-12T01:41:16;17.23;;;6.37;;
3523;SDS011;1776;53.330;11.498;2023-02-12T01:43:45;11.13;;;6.57;;
3523;SDS011;1776;53.330;11.498;2023-02-12T01:46:42;17.27;;;7.00;;
3523;SDS011;1776;53.330;11.498;2023-02-12T01:49:11;15.60;;;6.70;;
3523;SDS011;1776;53.330;11.498;2023-02-12T01:51:43;16.80;;;6.33;;
3523;SDS011;1776;53.330;11.498;2023-02-12T01:54:10;19.37;;;7.60;;
3523;SDS011;1776;53.330;11.498;2023-02-12T01:56:39;15.17;;;6.63;;
3523;SDS011;1776;53.330;11.498;2023-02-12T01:59:06;12.73;;;7.67;;
3523;SDS011;1776;53.330;11.498;2023-02-12T02:01:32;21.17;;;7.70;;
3523;SDS011;1776;53.330;11.498;2023-02-12T02:04:02;17.33;;;7.53;;
3523;SDS011;1776;53.330;11.498;2023-02-12T02:06:36;19.20;;;7.10;;
3523;SDS011;1776;53.330;11.498;2023-02-12T02:09:06;19.73;;;7.53;;
3523;SDS011;1776;53.330;11.498;2023-02-12T02:11:32;14.63;;;7.63;;
3523;SDS011;1776;53.330;11.498;2023-02-12T02:14:16;18.03;;;6.90;;
3523;SDS011;1776;53.330;11.498;2023-02-12T02:17:08;23.97;;;9.27;;
3523;SDS011;1776;53.330;11.498;2023-02-12T02:22:39;18.77;;;8.73;;
3523;SDS011;1776;53.330;11.498;2023-02-12T02:25:35;15.77;;;8.30;;
3523;SDS011;1776;53.330;11.498;2023-02-12T02:31:25;20.83;;;8.00;;
3523;SDS011;1776;53.330;11.498;2023-02-12T02:34:08;21.43;;;9.17;;
3523;SDS011;1776;53.330;11.498;2023-02-12T02:36:43;22.07;;;8.87;;
3523;SDS011;1776;53.330;11.498;2023-02-12T02:39:15;16.17;;;8.70;;
3523;SDS011;1776;53.330;11.498;2023-02-12T02:41:50;20.77;;;10.53;;
3523;SDS011;1776;53.330;11.498;2023-02-12T02:44:34;22.10;;;10.50;;
3523;SDS011;1776;53.330;11.498;2023-02-12T02:47:08;26.13;;;10.80;;
3523;SDS011;1776;53.330;11.498;2023-02-12T02:49:49;22.60;;;10.20;;
3523;SDS011;1776;53.330;11.498;2023-02-12T02:52:19;26.67;;;12.07;;
3523;SDS011;1776;53.330;11.498;2023-02-12T02:54:52;26.13;;;13.10;;
3523;SDS011;1776;53.330;11.498;2023-02-12T02:57:30;29.07;;;10.30;;
3523;SDS011;1776;53.330;11.498;2023-02-12T03:00:05;18.57;;;10.50;;
3523;SDS011;1776;53.330;11.498;2023-02-12T03:02:37;20.97;;;9.90;;
3523;SDS011;1776;53.330;11.498;2023-02-12T03:05:18;24.50;;;10.37;;
3523;SDS011;1776;53.330;11.498;2023-02-12T03:07:47;28.37;;;11.10;;
3523;SDS011;1776;53.330;11.498;2023-02-12T03:10:17;23.83;;;10.27;;
3523;SDS011;1776;53.330;11.498;2023-02-12T03:12:48;28.17;;;11.27;;
3523;SDS011;1776;53.330;11.498;2023-02-12T03:15:27;23.80;;;10.93;;
3523;SDS011;1776;53.330;11.498;2023-02-12T03:18:00;30.63;;;13.00;;
3523;SDS011;1776;53.330;11.498;2023-02-12T03:20:35;22.60;;;11.03;;
3523;SDS011;1776;53.330;11.498;2023-02-12T03:23:09;24.20;;;11.50;;
3523;SDS011;1776;53.330;11.498;2023-02-12T03:25:40;28.37;;;13.40;;
3523;SDS011;1776;53.330;11.498;2023-02-12T03:28:17;23.03;;;10.87;;
3523;SDS011;1776;53.330;11.498;2023-02-12T03:33:28;23.03;;;9.80;;
3523;SDS011;1776;53.330;11.498;2023-02-12T03:36:02;26.47;;;10.90;;
3523;SDS011;1776;53.330;11.498;2023-02-12T03:38:41;26.23;;;11.10;;
3523;SDS011;1776;53.330;11.498;2023-02-12T03:41:12;21.53;;;11.50;;
3523;SDS011;1776;53.330;11.498;2023-02-12T03:43:52;26.43;;;11.63;;
3523;SDS011;1776;53.330;11.498;2023-02-12T03:46:26;23.47;;;10.57;;
3523;SDS011;1776;53.330;11.498;2023-02-12T03:54:03;30.40;;;12.10;;
3523;SDS011;1776;53.330;11.498;2023-02-12T03:59:25;31.13;;;12.80;;
3523;SDS011;1776;53.330;11.498;2023-02-12T04:01:51;30.30;;;13.30;;
3523;SDS011;1776;53.330;11.498;2023-02-12T04:04:18;25.50;;;12.50;;
3523;SDS011;1776;53.330;11.498;2023-02-12T04:06:45;32.57;;;13.40;;
3523;SDS011;1776;53.330;11.498;2023-02-12T04:09:13;27.23;;;12.40;;
3523;SDS011;1776;53.330;11.498;2023-02-12T04:12:00;28.97;;;13.50;;
3523;SDS011;1776;53.330;11.498;2023-02-12T04:14:40;41.90;;;14.10;;
3523;SDS011;1776;53.330;11.498;2023-02-12T04:17:20;27.83;;;14.27;;
3523;SDS011;1776;53.330;11.498;2023-02-12T04:22:53;23.10;;;10.73;;
3523;SDS011;1776;53.330;11.498;2023-02-12T04:25:36;27.60;;;12.97;;
3523;SDS011;1776;53.330;11.498;2023-02-12T04:28:51;30.27;;;13.77;;
3523;SDS011;1776;53.330;11.498;2023-02-12T04:31:38;26.93;;;13.10;;
3523;SDS011;1776;53.330;11.498;2023-02-12T04:37:21;24.30;;;13.10;;
3523;SDS011;1776;53.330;11.498;2023-02-12T04:39:54;21.87;;;10.67;;
3523;SDS011;1776;53.330;11.498;2023-02-12T04:42:22;18.67;;;9.50;;
3523;SDS011;1776;53.330;11.498;2023-02-12T04:44:47;23.13;;;10.50;;
3523;SDS011;1776;53.330;11.498;2023-02-12T04:47:14;18.90;;;10.93;;
3523;SDS011;1776;53.330;11.498;2023-02-12T04:49:40;25.40;;;12.33;;
3523;SDS011;1776;53.330;11.498;2023-02-12T04:52:06;24.10;;;11.93;;
3523;SDS011;1776;53.330;11.498;2023-02-12T04:54:32;24.20;;;12.57;;
3523;SDS011;1776;53.330;11.498;2023-02-12T04:56:57;16.83;;;9.30;;
3523;SDS011;1776;53.330;11.498;2023-02-12T04:59:22;21.23;;;9.90;;
3523;SDS011;1776;53.330;11.498;2023-02-12T05:01:48;30.90;;;10.83;;
3523;SDS011;1776;53.330;11.498;2023-02-12T05:04:14;19.57;;;10.13;;
3523;SDS011;1776;53.330;11.498;2023-02-12T05:06:41;17.33;;;9.67;;
3523;SDS011;1776;53.330;11.498;2023-02-12T05:09:08;19.60;;;9.10;;
3523;SDS011;1776;53.330;11.498;2023-02-12T05:11:37;16.17;;;10.47;;
3523;SDS011;1776;53.330;11.498;2023-02-12T05:14:03;14.50;;;9.03;;
3523;SDS011;1776;53.330;11.498;2023-02-12T05:16:28;16.60;;;8.27;;
3523;SDS011;1776;53.330;11.498;2023-02-12T05:18:53;17.87;;;9.50;;
3523;SDS011;1776;53.330;11.498;2023-02-12T05:21:19;12.20;;;6.97;;
3523;SDS011;1776;53.330;11.498;2023-02-12T05:23:44;9.77;;;6.33;;
3523;SDS011;1776;53.330;11.498;2023-02-12T05:26:11;9.73;;;5.70;;
3523;SDS011;1776;53.330;11.498;2023-02-12T05:28:38;7.93;;;5.50;;
3523;SDS011;1776;53.330;11.498;2023-02-12T05:31:05;9.30;;;5.77;;
3523;SDS011;1776;53.330;11.498;2023-02-12T05:33:32;8.07;;;3.83;;
3523;SDS011;1776;53.330;11.498;2023-02-12T05:36:02;6.77;;;4.03;;
3523;SDS011;1776;53.330;11.498;2023-02-12T05:38:32;8.83;;;4.30;;
3523;SDS011;1776;53.330;11.498;2023-02-12T05:41:05;8.10;;;4.60;;
3523;SDS011;1776;53.330;11.498;2023-02-12T05:43:32;5.77;;;3.40;;
3523;SDS011;1776;53.330;11.498;2023-02-12T05:46:01;7.03;;;4.20;;
3523;SDS011;1776;53.330;11.498;2023-02-12T05:48:28;6.93;;;5.00;;
3523;SDS011;1776;53.330;11.498;2023-02-12T05:50:54;5.97;;;3.53;;
3523;SDS011;1776;53.330;11.498;2023-02-12T05:53:19;5.43;;;3.37;;
3523;SDS011;1776;53.330;11.498;2023-02-12T05:55:44;6.13;;;3.33;;
3523;SDS011;1776;53.330;11.498;2023-02-12T05:58:10;5.03;;;3.27;;
3523;SDS011;1776;53.330;11.498;2023-02-12T06:00:35;4.77;;;3.70;;
3523;SDS011;1776;53.330;11.498;2023-02-12T06:03:01;4.80;;;3.10;;
3523;SDS011;1776;53.330;11.498;2023-02-12T06:05:26;6.73;;;3.80;;
3523;SDS011;1776;53.330;11.498;2023-02-12T06:07:51;5.93;;;3.50;;
3523;SDS011;1776;53.330;11.498;2023-02-12T06:10:17;5.97;;;3.30;;
3523;SDS011;1776;53.330;11.498;2023-02-12T06:12:42;5.77;;;3.40;;
3523;SDS011;1776;53.330;11.498;2023-02-12T06:15:07;6.00;;;3.70;;
3523;SDS011;1776;53.330;11.498;2023-02-12T06:17:33;5.47;;;3.17;;
3523;SDS011;1776;53.330;11.498;2023-02-12T06:19:59;5.20;;;3.70;;
3523;SDS011;1776;53.330;11.498;2023-02-12T06:22:24;5.67;;;4.07;;
3523;SDS011;1776;53.330;11.498;2023-02-12T06:24:51;6.40;;;3.90;;
3523;SDS011;1776;53.330;11.498;2023-02-12T06:27:16;4.73;;;2.70;;
3523;SDS011;1776;53.330;11.498;2023-02-12T06:29:41;5.80;;;3.47;;
3523;SDS011;1776;53.330;11.498;2023-02-12T06:32:07;5.47;;;4.27;;
3523;SDS011;1776;53.330;11.498;2023-02-12T06:34:32;5.30;;;3.60;;
3523;SDS011;1776;53.330;11.498;2023-02-12T06:36:58;6.70;;;3.80;;
3523;SDS011;1776;53.330;11.498;2023-02-12T06:39:23;9.30;;;4.83;;
3523;SDS011;1776;53.330;11.498;2023-02-12T06:41:49;9.93;;;4.67;;
3523;SDS011;1776;53.330;11.498;2023-02-12T06:44:14;12.60;;;5.87;;
3523;SDS011;1776;53.330;11.498;2023-02-12T06:46:39;13.03;;;6.60;;
3523;SDS011;1776;53.330;11.498;2023-02-12T06:49:05;15.53;;;8.03;;
3523;SDS011;1776;53.330;11.498;2023-02-12T06:51:30;13.97;;;7.30;;
3523;SDS011;1776;53.330;11.498;2023-02-12T06:53:56;18.97;;;9.10;;
3523;SDS011;1776;53.330;11.498;2023-02-12T06:56:24;15.63;;;7.50;;
3523;SDS011;1776;53.330;11.498;2023-02-12T06:58:51;14.40;;;7.70;;
3523;SDS011;1776;53.330;11.498;2023-02-12T07:01:20;16.50;;;8.63;;
3523;SDS011;1776;53.330;11.498;2023-02-12T07:03:54;16.00;;;8.37;;
3523;SDS011;1776;53.330;11.498;2023-02-12T07:06:23;17.23;;;8.87;;
3523;SDS011;1776;53.330;11.498;2023-02-12T07:08:50;14.13;;;8.10;;
3523;SDS011;1776;53.330;11.498;2023-02-12T07:11:15;13.80;;;8.73;;
3523;SDS011;1776;53.330;11.498;2023-02-12T07:13:41;18.50;;;8.20;;
3523;SDS011;1776;53.330;11.498;2023-02-12T07:16:08;16.73;;;8.73;;
3523;SDS011;1776;53.330;11.498;2023-02-12T07:18:35;15.00;;;7.50;;
3523;SDS011;1776;53.330;11.498;2023-02-12T07:21:01;16.30;;;8.60;;
3523;SDS011;1776;53.330;11.498;2023-02-12T07:23:28;15.23;;;8.63;;
3523;SDS011;1776;53.330;11.498;2023-02-12T07:25:54;16.20;;;9.00;;
3523;SDS011;1776;53.330;11.498;2023-02-12T07:28:23;19.93;;;10.23;;
3523;SDS011;1776;53.330;11.498;2023-02-12T07:30:49;18.63;;;9.37;;
3523;SDS011;1776;53.330;11.498;2023-02-12T07:33:15;16.20;;;9.40;;
3523;SDS011;1776;53.330;11.498;2023-02-12T07:35:40;23.27;;;8.63;;
3523;SDS011;1776;53.330;11.498;2023-02-12T07:38:05;18.50;;;8.37;;
3523;SDS011;1776;53.330;11.498;2023-02-12T07:40:31;12.43;;;7.60;;
3523;SDS011;1776;53.330;11.498;2023-02-12T07:42:56;13.57;;;8.80;;
3523;SDS011;1776;53.330;11.498;2023-02-12T07:45:21;16.83;;;8.87;;
3523;SDS011;1776;53.330;11.498;2023-02-12T07:47:47;20.77;;;11.13;;
3523;SDS011;1776;53.330;11.498;2023-02-12T07:50:12;23.03;;;9.60;;
3523;SDS011;1776;53.330;11.498;2023-02-12T07:52:37;18.30;;;9.30;;
3523;SDS011;1776;53.330;11.498;2023-02-12T07:55:02;13.63;;;6.73;;
3523;SDS011;1776;53.330;11.498;2023-02-12T07:57:28;10.90;;;6.27;;
3523;SDS011;1776;53.330;11.498;2023-02-12T07:59:53;7.47;;;5.10;;
3523;SDS011;1776;53.330;11.498;2023-02-12T08:02:18;4.67;;;3.47;;
3523;SDS011;1776;53.330;11.498;2023-02-12T08:04:44;9.03;;;4.67;;
3523;SDS011;1776;53.330;11.498;2023-02-12T08:07:09;8.57;;;3.70;;
3523;SDS011;1776;53.330;11.498;2023-02-12T08:09:34;8.53;;;4.90;;
3523;SDS011;1776;53.330;11.498;2023-02-12T08:12:00;10.83;;;5.63;;
3523;SDS011;1776;53.330;11.498;2023-02-12T08:14:25;9.53;;;4.67;;
3523;SDS011;1776;53.330;11.498;2023-02-12T08:16:50;7.07;;;3.90;;
3523;SDS011;1776;53.330;11.498;2023-02-12T08:19:16;6.33;;;4.33;;
3523;SDS011;1776;53.330;11.498;2023-02-12T08:21:42;9.20;;;4.40;;
3523;SDS011;1776;53.330;11.498;2023-02-12T08:24:08;6.47;;;4.10;;
3523;SDS011;1776;53.330;11.498;2023-02-12T08:26:35;10.63;;;4.80;;
3523;SDS011;1776;53.330;11.498;2023-02-12T08:29:09;9.97;;;5.03;;
3523;SDS011;1776;53.330;11.498;2023-02-12T08:31:38;10.33;;;5.50;;
3523;SDS011;1776;53.330;11.498;2023-02-12T08:34:17;9.50;;;5.40;;
3523;SDS011;1776;53.330;11.498;2023-02-12T08:36:45;12.87;;;5.97;;
3523;SDS011;1776;53.330;11.498;2023-02-12T08:39:11;10.13;;;5.67;;
3523;SDS011;1776;53.330;11.498;2023-02-12T08:41:37;13.37;;;6.70;;
3523;SDS011;1776;53.330;11.498;2023-02-12T08:44:03;11.60;;;6.30;;
3523;SDS011;1776;53.330;11.498;2023-02-12T08:46:30;10.17;;;5.57;;
3523;SDS011;1776;53.330;11.498;2023-02-12T08:48:57;9.83;;;5.80;;
3523;SDS011;1776;53.330;11.498;2023-02-12T08:51:25;11.67;;;5.90;;
3523;SDS011;1776;53.330;11.498;2023-02-12T08:53:56;8.73;;;5.60;;
3523;SDS011;1776;53.330;11.498;2023-02-12T08:56:23;7.03;;;5.10;;
3523;SDS011;1776;53.330;11.498;2023-02-12T08:58:49;7.00;;;4.80;;
3523;SDS011;1776;53.330;11.498;2023-02-12T09:01:17;12.63;;;5.90;;
3523;SDS011;1776;53.330;11.498;2023-02-12T09:03:45;10.30;;;5.00;;
3523;SDS011;1776;53.330;11.498;2023-02-12T09:06:11;10.53;;;5.63;;
3523;SDS011;1776;53.330;11.498;2023-02-12T09:08:38;10.33;;;5.47;;
3523;SDS011;1776;53.330;11.498;2023-02-12T09:11:04;9.63;;;5.70;;
3523;SDS011;1776;53.330;11.498;2023-02-12T09:13:31;9.87;;;5.00;;
3523;SDS011;1776;53.330;11.498;2023-02-12T09:15:56;7.50;;;5.20;;
3523;SDS011;1776;53.330;11.498;2023-02-12T09:18:26;10.90;;;6.17;;
3523;SDS011;1776;53.330;11.498;2023-02-12T09:20:51;12.17;;;6.77;;
3523;SDS011;1776;53.330;11.498;2023-02-12T09:23:16;10.00;;;5.93;;
3523;SDS011;1776;53.330;11.498;2023-02-12T09:25:42;13.93;;;6.93;;
3523;SDS011;1776;53.330;11.498;2023-02-12T09:28:10;13.40;;;6.37;;
3523;SDS011;1776;53.330;11.498;2023-02-12T09:30:36;9.93;;;6.90;;
3523;SDS011;1776;53.330;11.498;2023-02-12T09:33:03;16.20;;;8.87;;
3523;SDS011;1776;53.330;11.498;2023-02-12T09:35:29;12.97;;;8.10;;
3523;SDS011;1776;53.330;11.498;2023-02-12T09:37:54;15.93;;;8.30;;
3523;SDS011;1776;53.330;11.498;2023-02-12T09:40:21;18.60;;;7.80;;
3523;SDS011;1776;53.330;11.498;2023-02-12T09:45:27;11.73;;;7.40;;
3523;SDS011;1776;53.330;11.498;2023-02-12T09:48:05;17.73;;;7.87;;
3523;SDS011;1776;53.330;11.498;2023-02-12T09:50:48;13.73;;;8.17;;
3523;SDS011;1776;53.330;11.498;2023-02-12T09:53:22;18.70;;;8.20;;
3523;SDS011;1776;53.330;11.498;2023-02-12T09:55:49;17.00;;;8.00;;
3523;SDS011;1776;53.330;11.498;2023-02-12T10:00:56;15.07;;;7.90;;
3523;SDS011;1776;53.330;11.498;2023-02-12T10:03:22;15.10;;;7.80;;
3523;SDS011;1776;53.330;11.498;2023-02-12T10:05:49;13.50;;;6.77;;
3523;SDS011;1776;53.330;11.498;2023-02-12T10:13:48;12.07;;;5.40;;
3523;SDS011;1776;53.330;11.498;2023-02-12T10:19:33;8.83;;;5.93;;
3523;SDS011;1776;53.330;11.498;2023-02-12T10:22:19;10.40;;;5.33;;
3523;SDS011;1776;53.330;11.498;2023-02-12T10:27:59;12.93;;;6.53;;
3523;SDS011;1776;53.330;11.498;2023-02-12T10:33:12;16.77;;;6.03;;
3523;SDS011;1776;53.330;11.498;2023-02-12T10:35:48;10.57;;;6.23;;
3523;SDS011;1776;53.330;11.498;2023-02-12T10:38:31;11.10;;;7.00;;
3523;SDS011;1776;53.330;11.498;2023-02-12T10:41:02;14.93;;;7.27;;
3523;SDS011;1776;53.330;11.498;2023-02-12T10:43:27;15.47;;;7.60;;
3523;SDS011;1776;53.330;11.498;2023-02-12T10:45:54;17.50;;;8.20;;
3523;SDS011;1776;53.330;11.498;2023-02-12T10:48:32;15.80;;;8.67;;
3523;SDS011;1776;53.330;11.498;2023-02-12T10:51:04;20.83;;;9.93;;
3523;SDS011;1776;53.330;11.498;2023-02-12T10:53:45;17.60;;;9.63;;
3523;SDS011;1776;53.330;11.498;2023-02-12T10:58:40;19.77;;;9.73;;
3523;SDS011;1776;53.330;11.498;2023-02-12T11:03:58;21.47;;;9.90;;
3523;SDS011;1776;53.330;11.498;2023-02-12T11:06:28;16.27;;;9.50;;
3523;SDS011;1776;53.330;11.498;2023-02-12T11:08:55;25.63;;;10.17;;
3523;SDS011;1776;53.330;11.498;2023-02-12T11:11:26;21.27;;;10.57;;
3523;SDS011;1776;53.330;11.498;2023-02-12T11:13:59;18.03;;;9.47;;
3523;SDS011;1776;53.330;11.498;2023-02-12T11:16:32;20.87;;;10.33;;
3523;SDS011;1776;53.330;11.498;2023-02-12T11:19:19;16.87;;;8.60;;
3523;SDS011;1776;53.330;11.498;2023-02-12T11:21:46;18.60;;;8.83;;
3523;SDS011;1776;53.330;11.498;2023-02-12T11:26:46;17.77;;;8.40;;
3523;SDS011;1776;53.330;11.498;2023-02-12T11:29:19;14.37;;;8.10;;
3523;SDS011;1776;53.330;11.498;2023-02-12T11:32:07;19.73;;;7.80;;
3523;SDS011;1776;53.330;11.498;2023-02-12T11:34:39;15.97;;;7.27;;
3523;SDS011;1776;53.330;11.498;2023-02-12T11:37:04;13.93;;;7.90;;
3523;SDS011;1776;53.330;11.498;2023-02-12T11:39:40;21.23;;;7.97;;
3523;SDS011;1776;53.330;11.498;2023-02-12T11:44:47;16.60;;;7.87;;
3523;SDS011;1776;53.330;11.498;2023-02-12T11:47:17;16.87;;;7.90;;
3523;SDS011;1776;53.330;11.498;2023-02-12T11:49:53;18.33;;;8.00;;
3523;SDS011;1776;53.330;11.498;2023-02-12T11:52:26;16.47;;;7.23;;
3523;SDS011;1776;53.330;11.498;2023-02-12T11:54:55;18.30;;;9.00;;
3523;SDS011;1776;53.330;11.498;2023-02-12T12:00:02;19.13;;;8.63;;
3523;SDS011;1776;53.330;11.498;2023-02-12T12:02:36;14.20;;;8.37;;
3523;SDS011;1776;53.330;11.498;2023-02-12T12:05:08;13.83;;;7.83;;
3523;SDS011;1776;53.330;11.498;2023-02-12T12:07:40;16.83;;;8.90;;
3523;SDS011;1776;53.330;11.498;2023-02-12T12:12:53;13.47;;;8.50;;
3523;SDS011;1776;53.330;11.498;2023-02-12T12:15:25;12.67;;;7.33;;
3523;SDS011;1776;53.330;11.498;2023-02-12T12:33:18;16.53;;;8.23;;
3523;SDS011;1776;53.330;11.498;2023-02-12T12:36:03;15.23;;;7.40;;
3523;SDS011;1776;53.330;11.498;2023-02-12T12:38:40;12.90;;;7.83;;
3523;SDS011;1776;53.330;11.498;2023-02-12T12:52:18;13.53;;;8.40;;
3523;SDS011;1776;53.330;11.498;2023-02-12T12:57:48;11.17;;;6.87;;
3523;SDS011;1776;53.330;11.498;2023-02-12T13:00:20;14.23;;;6.47;;
3523;SDS011;1776;53.330;11.498;2023-02-12T13:14:42;10.73;;;6.43;;
3523;SDS011;1776;53.330;11.498;2023-02-12T13:17:13;8.83;;;5.77;;
3523;SDS011;1776;53.330;11.498;2023-02-12T13:19:52;13.80;;;5.70;;
3523;SDS011;1776;53.330;11.498;2023-02-12T13:25:13;11.93;;;5.13;;
3523;SDS011;1776;53.330;11.498;2023-02-12T13:28:08;10.50;;;4.80;;
3523;SDS011;1776;53.330;11.498;2023-02-12T13:30:41;7.03;;;5.03;;
3523;SDS011;1776;53.330;11.498;2023-02-12T13:33:16;8.87;;;6.27;;
3523;SDS011;1776;53.330;11.498;2023-02-12T13:35:44;11.63;;;4.90;;
3523;SDS011;1776;53.330;11.498;2023-02-12T13:38:18;9.50;;;5.40;;
3523;SDS011;1776;53.330;11.498;2023-02-12T13:40:47;14.57;;;5.37;;
3523;SDS011;1776;53.330;11.498;2023-02-12T13:45:48;8.90;;;6.27;;
3523;SDS011;1776;53.330;11.498;2023-02-12T14:01:57;9.77;;;6.37;;
3523;SDS011;1776;53.330;11.498;2023-02-12T14:04:26;8.93;;;5.47;;
3523;SDS011;1776;53.330;11.498;2023-02-12T14:07:05;7.43;;;4.97;;
3523;SDS011;1776;53.330;11.498;2023-02-12T14:09:36;9.03;;;4.83;;
3523;SDS011;1776;53.330;11.498;2023-02-12T14:12:36;6.80;;;4.23;;
3523;SDS011;1776;53.330;11.498;2023-02-12T14:15:10;5.33;;;3.80;;
3523;SDS011;1776;53.330;11.498;2023-02-12T14:23:02;6.60;;;5.23;;
3523;SDS011;1776;53.330;11.498;2023-02-12T14:26:28;7.97;;;4.90;;
3523;SDS011;1776;53.330;11.498;2023-02-12T14:28:46;5.83;;;4.20;;
3523;SDS011;1776;53.330;11.498;2023-02-12T14:38:58;5.30;;;4.43;;
3523;SDS011;1776;53.330;11.498;2023-02-12T14:41:33;8.53;;;4.40;;
3523;SDS011;1776;53.330;11.498;2023-02-12T14:49:26;5.97;;;4.27;;
3523;SDS011;1776;53.330;11.498;2023-02-12T14:52:11;7.90;;;4.40;;
3523;SDS011;1776;53.330;11.498;2023-02-12T14:54:42;6.90;;;5.33;;
3523;SDS011;1776;53.330;11.498;2023-02-12T14:57:25;7.10;;;4.90;;
3523;SDS011;1776;53.330;11.498;2023-02-12T14:59:53;12.53;;;6.80;;
3523;SDS011;1776;53.330;11.498;2023-02-12T15:02:27;10.87;;;6.97;;
3523;SDS011;1776;53.330;11.498;2023-02-12T15:04:58;12.83;;;7.27;;
3523;SDS011;1776;53.330;11.498;2023-02-12T15:07:29;15.47;;;9.20;;
3523;SDS011;1776;53.330;11.498;2023-02-12T15:10:02;9.77;;;5.60;;
3523;SDS011;1776;53.330;11.498;2023-02-12T15:12:34;13.50;;;6.13;;
3523;SDS011;1776;53.330;11.498;2023-02-12T15:15:05;8.07;;;5.40;;
3523;SDS011;1776;53.330;11.498;2023-02-12T15:17:52;7.00;;;5.80;;
3523;SDS011;1776;53.330;11.498;2023-02-12T15:20:24;5.17;;;4.30;;
3523;SDS011;1776;53.330;11.498;2023-02-12T15:25:56;9.70;;;6.00;;
3523;SDS011;1776;53.330;11.498;2023-02-12T15:28:23;10.07;;;7.07;;
3523;SDS011;1776;53.330;11.498;2023-02-12T15:30:57;9.23;;;6.60;;
3523;SDS011;1776;53.330;11.498;2023-02-12T15:33:28;9.03;;;5.67;;
3523;SDS011;1776;53.330;11.498;2023-02-12T15:35:56;8.17;;;6.40;;
3523;SDS011;1776;53.330;11.498;2023-02-12T15:38:41;8.60;;;4.63;;
3523;SDS011;1776;53.330;11.498;2023-02-12T15:41:07;8.70;;;5.20;;
3523;SDS011;1776;53.330;11.498;2023-02-12T15:43:47;10.27;;;4.13;;
3523;SDS011;1776;53.330;11.498;2023-02-12T15:46:14;6.83;;;4.20;;
3523;SDS011;1776;53.330;11.498;2023-02-12T15:48:40;5.90;;;4.20;;
3523;SDS011;1776;53.330;11.498;2023-02-12T15:53:40;4.33;;;3.33;;
3523;SDS011;1776;53.330;11.498;2023-02-12T15:56:09;4.73;;;3.70;;
3523;SDS011;1776;53.330;11.498;2023-02-12T15:58:59;3.20;;;2.90;;
3523;SDS011;1776;53.330;11.498;2023-02-12T16:01:25;4.30;;;2.37;;
3523;SDS011;1776;53.330;11.498;2023-02-12T16:03:55;7.70;;;3.77;;
3523;SDS011;1776;53.330;11.498;2023-02-12T16:06:23;3.57;;;2.60;;
3523;SDS011;1776;53.330;11.498;2023-02-12T16:09:14;3.97;;;2.73;;
3523;SDS011;1776;53.330;11.498;2023-02-12T16:11:43;4.03;;;2.60;;
3523;SDS011;1776;53.330;11.498;2023-02-12T16:14:20;3.10;;;2.80;;
3523;SDS011;1776;53.330;11.498;2023-02-12T16:16:50;3.90;;;2.80;;
3523;SDS011;1776;53.330;11.498;2023-02-12T16:19:22;3.53;;;2.90;;
3523;SDS011;1776;53.330;11.498;2023-02-12T16:21:52;2.77;;;2.20;;
3523;SDS011;1776;53.330;11.498;2023-02-12T16:24:27;3.27;;;2.97;;
3523;SDS011;1776;53.330;11.498;2023-02-12T16:26:54;4.77;;;3.20;;
3523;SDS011;1776;53.330;11.498;2023-02-12T16:29:21;3.70;;;2.93;;
3523;SDS011;1776;53.330;11.498;2023-02-12T16:31:57;6.47;;;3.77;;
3523;SDS011;1776;53.330;11.498;2023-02-12T16:34:26;4.63;;;3.27;;
3523;SDS011;1776;53.330;11.498;2023-02-12T16:36:52;3.43;;;3.13;;
3523;SDS011;1776;53.330;11.498;2023-02-12T16:40:02;3.87;;;3.17;;
3523;SDS011;1776;53.330;11.498;2023-02-12T16:42:17;4.50;;;3.80;;
3523;SDS011;1776;53.330;11.498;2023-02-12T16:44:48;5.47;;;4.20;;
3523;SDS011;1776;53.330;11.498;2023-02-12T16:47:20;3.50;;;3.20;;
3523;SDS011;1776;53.330;11.498;2023-02-12T16:49:58;3.53;;;3.17;;
3523;SDS011;1776;53.330;11.498;2023-02-12T16:52:37;3.43;;;2.93;;
3523;SDS011;1776;53.330;11.498;2023-02-12T16:55:14;8.43;;;3.10;;
3523;SDS011;1776;53.330;11.498;2023-02-12T16:57:42;8.30;;;3.90;;
3523;SDS011;1776;53.330;11.498;2023-02-12T17:00:07;5.53;;;3.87;;
3523;SDS011;1776;53.330;11.498;2023-02-12T17:02:34;4.60;;;4.20;;
3523;SDS011;1776;53.330;11.498;2023-02-12T17:05:03;5.30;;;4.80;;
3523;SDS011;1776;53.330;11.498;2023-02-12T17:07:31;5.30;;;4.43;;
3523;SDS011;1776;53.330;11.498;2023-02-12T17:09:58;3.97;;;3.57;;
3523;SDS011;1776;53.330;11.498;2023-02-12T17:12:23;4.20;;;2.40;;
3523;SDS011;1776;53.330;11.498;2023-02-12T17:14:49;4.70;;;4.17;;
3523;SDS011;1776;53.330;11.498;2023-02-12T17:17:14;3.27;;;2.40;;
3523;SDS011;1776;53.330;11.498;2023-02-12T17:19:40;2.40;;;2.20;;
3523;SDS011;1776;53.330;11.498;2023-02-12T17:22:06;2.40;;;2.20;;
3523;SDS011;1776;53.330;11.498;2023-02-12T17:24:38;1.40;;;1.30;;
3523;SDS011;1776;53.330;11.498;2023-02-12T17:27:04;2.00;;;1.80;;
3523;SDS011;1776;53.330;11.498;2023-02-12T17:29:31;2.27;;;2.00;;
3523;SDS011;1776;53.330;11.498;2023-02-12T17:31:57;1.70;;;1.60;;